Airfield :
LOGIN :

Register | Disclaimer

   EN    FR    IT 

 










Legend :    VFR   Marginal VFR   IFR   Intensive IFR   Very Intensive IFR
Visi :
Ceiling :
>= 8 km
>= 3000ft
5 to 8 km
1000 to 3000 ft
1500m to 5 km
500 to 1000 ft
800 to 1500m
200 to 500 ft
< 800m
< 200 ft
Symbols :   Thunderstorms  Fog  Heavy snow  Heavy precipitations  Wind > 20 kt
SIGMETs :     Misc.  Thunderstorms  Icing  Turbulence  Mountain Waves  Volcanic Ashes






- Airport Elevation : 505 ft
- IATA code : SXB


LFST - Strasbourg

CURRENT METAR :
  • 240030Z AUTO 20004KT 7000 -RA FEW031 BKN078 OVC094 13/13 Q1017 TEMPO 0700 FG BKN001

EXPIRED METARs :
  • 240000Z AUTO 20004KT 6000 -RA FEW027 SCT032 BKN062 14/13 Q1016 TEMPO 4000 BR
  • 232330Z AUTO 18006KT 8000 FEW004 BKN068 OVC080 14/13 Q1016 TEMPO 4000 BR
  • 232300Z AUTO VRB02KT 7000 ///TCU 14/13 Q1016 BECMG FEW010 BKN030 BKN075
  • 232230Z AUTO VRB02KT 6000 SCT056/// BKN070/// OVC080/// ///TCU 14/13 Q1016 BECMG FEW010 BKN030 BKN075
  • 232200Z AUTO 20004KT 7000 -RADZ FEW048 BKN070 OVC082 14/13 Q1016 TEMPO BKN006 FEW025TCU BKN030

TAF TAF LFST
Valid from the 24 at 00:00 until the 25 at 00:00 UTC


232309Z 2400/2424 19007KT 9999 FEW010 SCT040 BKN070
TEMPO 2400/2407 4000 BR
PROB40
TEMPO 2402/2407 VRB02KT 0700 FG BKN001



MET'MAP, your aeronautical weather chart ! - Copyright ORBIFLY December 2007 - Disclaimer

ORBIFLY MET'MAP TEAM :

Programming & Development : Alexandra Zaïnal
Concept & original design : Baudouin d'Aumeries
Assistance for programming : Marc-Olivier Méhu
Technical & hardware support : Manuel Goepfert

Contact : metmap@orbifly.com




SOURCES & CREDITS :

   NOAA